W.w. Crum — WDB7252 — position and weather

sailwx.info

Track history (hours):
 
Tides and Currents Weather Stations Pressure Air Temp Water Temp Dewpoint Dewpoint Depression Visibility Wind Speed Wind Dir Waves Ship Positions

W.w. Crum

Owner: Magnolia Marine Transport Co, Vicksburg, MS. More information available from US FCC via Universal Licensing System and Coast Guard Vessel Documentation Center.

Last reported at 2018-Jun-23 02:51 UTC. Time now 2018-Jun-25 09:34 UTC.
Position N 32°40' W 091°06'.

Length 38 m; draft 2.7 m.

Type: Towing. MMSI: 366939330.

Date/timePositionNaut miles runAvg speedWind from/ knotsBaromVisibWave heightAir tempDewpointWater temp
2018-Jun-23 02:51N 32°40' W 091°06'2 5.4
2018-Jun-23 02:30N 32°40' W 091°08'3 5.7
2018-Jun-23 02:01N 32°37' W 091°09'3 5.6
2018-Jun-23 01:31N 32°35' W 091°07'2 4.9
2018-Jun-23 01:01N 32°32' W 091°06'3 5.7
2018-Jun-23 00:31N 32°29' W 091°07'3 5.5
2018-Jun-23 00:01N 32°27' W 091°05'3 5.6
2018-Jun-22 23:31N 32°26' W 091°02'3 5.0
2018-Jun-22 23:01N 32°25' W 090°60'2 4.1
2018-Jun-22 22:30N 32°23' W 091°00'2 3.4
2018-Jun-22 22:01N 32°21' W 090°59'2 5.0
2018-Jun-22 21:31N 32°21' W 090°56'1 2.1
2018-Jun-22 21:01N 32°21' W 090°55'0 0.0
2018-Jun-22 20:30N 32°21' W 090°55'1 2.6
2018-Jun-22 20:01N 32°20' W 090°54'2 3.9
2018-Jun-22 19:30N 32°22' W 090°53'1 1.2
2018-Jun-22 19:01N 32°22' W 090°53'0 0.6
2018-Jun-22 18:30N 32°23' W 090°53'1 1.6
2018-Jun-22 18:01N 32°23' W 090°53'0 0.8
2018-Jun-22 17:30N 32°23' W 090°53'0 0.0
2018-Jun-22 17:01N 32°23' W 090°53'0 0.0
2018-Jun-22 16:31N 32°23' W 090°53'0 0.0
2018-Jun-22 16:00N 32°23' W 090°53'1 1.5
2018-Jun-22 15:30N 32°22' W 090°53'1 1.3
2018-Jun-22 15:01N 32°22' W 090°53'0 0.0
2018-Jun-22 14:31N 32°22' W 090°53'1 1.3
2018-Jun-22 14:01N 32°22' W 090°53'1 1.4
2018-Jun-22 13:31N 32°23' W 090°53'0 0.0
2018-Jun-22 13:01N 32°23' W 090°53'0 0.0
2018-Jun-22 12:31N 32°23' W 090°53'0 0.0
2018-Jun-22 11:59N 32°23' W 090°53'0 0.0
2018-Jun-22 11:31N 32°23' W 090°53'0 0.0
2018-Jun-22 11:00N 32°23' W 090°53'1 1.6
2018-Jun-22 10:30N 32°22' W 090°53'1 1.3
2018-Jun-22 10:01N 32°23' W 090°53'0 0.0
2018-Jun-22 09:31N 32°23' W 090°53'0 0.0
2018-Jun-22 09:00N 32°23' W 090°53'0 0.6
2018-Jun-22 08:31N 32°23' W 090°54'1 1.9
2018-Jun-22 08:01N 32°23' W 090°55'0 0.2
2018-Jun-22 07:31N 32°23' W 090°55'0 0.2
2018-Jun-22 07:00N 32°23' W 090°55'0 0.1
2018-Jun-22 06:31N 32°23' W 090°55'0 0.3
2018-Jun-22 06:01N 32°23' W 090°55'0 0.0
2018-Jun-22 05:30N 32°23' W 090°55'0 0.0
2018-Jun-22 05:01N 32°23' W 090°55'0 0.0
2018-Jun-22 04:31N 32°23' W 090°55'0 0.0
2018-Jun-22 04:01N 32°23' W 090°55'0 0.0
2018-Jun-22 03:31N 32°23' W 090°55'0 0.0
2018-Jun-22 03:01N 32°23' W 090°55'0 0.0
2018-Jun-22 02:30N 32°23' W 090°55'0 0.0
2018-Jun-22 02:01N 32°23' W 090°55'0 0.0
2018-Jun-22 01:30N 32°23' W 090°55'0 0.0
2018-Jun-22 01:01N 32°23' W 090°55'0 0.0
2018-Jun-22 00:31N 32°23' W 090°55'0 0.0
2018-Jun-22 00:01N 32°23' W 090°55'0 0.0
2018-Jun-21 23:31N 32°23' W 090°55'0 0.0
2018-Jun-21 23:01N 32°23' W 090°55'0 0.0
2018-Jun-21 22:31N 32°23' W 090°55'0 0.0
2018-Jun-21 22:01N 32°23' W 090°55'0 0.0
2018-Jun-21 21:30N 32°23' W 090°55'0 0.0
2018-Jun-21 21:00N 32°23' W 090°55'0 0.0
2018-Jun-21 20:31N 32°23' W 090°55'0 0.0
2018-Jun-21 20:00N 32°23' W 090°55'0 0.0
2018-Jun-21 19:31N 32°23' W 090°55'0 0.0
2018-Jun-21 19:01N 32°23' W 090°55'0 0.0
2018-Jun-21 18:31N 32°23' W 090°55'0 0.0
2018-Jun-21 18:01N 32°23' W 090°55'0 0.0
2018-Jun-21 17:30N 32°23' W 090°55'0 0.0
2018-Jun-21 17:01N 32°23' W 090°55'0 0.0
2018-Jun-21 16:31N 32°23' W 090°55'0 0.0
2018-Jun-21 16:01N 32°23' W 090°55'0 0.0
2018-Jun-21 15:31N 32°23' W 090°55'0 0.0
2018-Jun-21 15:01N 32°23' W 090°55'0 0.0
2018-Jun-21 14:31N 32°23' W 090°55'0 0.0
2018-Jun-21 14:01N 32°23' W 090°55'0 0.0
2018-Jun-21 13:31N 32°23' W 090°55'0 0.0
2018-Jun-21 13:01N 32°23' W 090°55'0 0.0
2018-Jun-21 12:31N 32°23' W 090°55'0 0.0
2018-Jun-21 12:00N 32°23' W 090°55'0 0.9
2018-Jun-21 11:31N 32°23' W 090°54'2 3.3
2018-Jun-21 11:00N 32°21' W 090°53'2 3.1
2018-Jun-21 10:31N 32°20' W 090°54'3 6.9
2018-Jun-21 10:01N 32°21' W 090°58'3 6.1
2018-Jun-21 09:31N 32°24' W 090°59'4 7.4
2018-Jun-21 09:01N 32°26' W 091°03'4 8.2
2018-Jun-21 08:31N 32°29' W 091°07'4 7.8
2018-Jun-21 08:00N 32°32' W 091°06'4 7.9
2018-Jun-21 07:31N 32°36' W 091°08'9 4.3
2018-Jun-21 05:26N 32°45' W 091°09'  
2018-Jun-16 16:16N 32°38' W 091°09'1 5.2
2018-Jun-16 16:01N 32°37' W 091°09'2 4.6
2018-Jun-16 15:30N 32°35' W 091°07'2 4.1
2018-Jun-16 15:00N 32°33' W 091°06'3 4.6
2018-Jun-16 14:26N 32°31' W 091°07'2 4.9
2018-Jun-16 14:00N 32°29' W 091°06'2 4.8
2018-Jun-16 13:31N 32°27' W 091°04'2 4.8
2018-Jun-16 13:00N 32°26' W 091°02'2 4.3
2018-Jun-16 12:31N 32°25' W 090°60'2 4.2
2018-Jun-16 12:00N 32°23' W 091°00'2 4.0
2018-Jun-16 11:31N 32°21' W 090°59'2 4.9
2018-Jun-16 11:01N 32°21' W 090°56'2 3.8
2018-Jun-16 10:31N 32°20' W 090°54'0 0.9
2018-Jun-16 10:00N 32°20' W 090°54'0 0.0
2018-Jun-16 09:31N 32°20' W 090°54'0 0.0
2018-Jun-16 09:01N 32°20' W 090°54'0 0.0
2018-Jun-16 08:31N 32°20' W 090°54'0 0.5
2018-Jun-16 08:01N 32°20' W 090°54'0 0.2
2018-Jun-16 07:30N 32°20' W 090°54'0 0.0
2018-Jun-16 07:01N 32°20' W 090°54'0 0.0
2018-Jun-16 06:31N 32°20' W 090°54'0 0.0
2018-Jun-16 06:01N 32°20' W 090°54'0 0.0
2018-Jun-16 05:30N 32°20' W 090°54'0 0.0
2018-Jun-16 05:01N 32°20' W 090°54'0 0.0
2018-Jun-16 04:31N 32°20' W 090°54'0 0.0
2018-Jun-16 04:01N 32°20' W 090°54'0 0.0
2018-Jun-16 03:31N 32°20' W 090°54'0 0.0
2018-Jun-16 03:00N 32°20' W 090°54'0 0.0
2018-Jun-16 02:30N 32°20' W 090°54'0 0.0
2018-Jun-16 02:01N 32°20' W 090°54'0 0.0
2018-Jun-16 01:31N 32°20' W 090°54'0 0.0
2018-Jun-16 01:01N 32°20' W 090°54'0 0.0
2018-Jun-16 00:31N 32°20' W 090°54'0 0.0
2018-Jun-16 00:00N 32°20' W 090°54'0 0.0
2018-Jun-15 23:30N 32°20' W 090°54'0 0.0
2018-Jun-15 23:01N 32°20' W 090°54'0 0.0
2018-Jun-15 22:31N 32°20' W 090°54'0 0.0
2018-Jun-15 22:01N 32°20' W 090°54'0 0.0
2018-Jun-15 21:31N 32°20' W 090°54'0 0.0
2018-Jun-15 21:01N 32°20' W 090°54'0 0.0
2018-Jun-15 20:31N 32°20' W 090°54'0 0.0
2018-Jun-15 20:01N 32°20' W 090°54'0 0.0
2018-Jun-15 19:31N 32°20' W 090°54'0 0.0
2018-Jun-15 19:01N 32°20' W 090°54'0 0.0
2018-Jun-15 18:31N 32°20' W 090°54'0 0.0
2018-Jun-15 18:01N 32°20' W 090°54'0 0.0
2018-Jun-15 17:31N 32°20' W 090°54'0 0.0
2018-Jun-15 17:01N 32°20' W 090°54'0 0.0
2018-Jun-15 16:30N 32°20' W 090°54'0 0.0
2018-Jun-15 16:00N 32°20' W 090°54'1 2.6
2018-Jun-15 15:31N 32°21' W 090°53'1 2.6
2018-Jun-15 15:00N 32°20' W 090°54'0 0.0
2018-Jun-15 14:31N 32°20' W 090°54'0 0.0
2018-Jun-15 14:01N 32°20' W 090°54'0 0.0
2018-Jun-15 13:31N 32°20' W 090°54'0 0.0
2018-Jun-15 13:00N 32°20' W 090°54'0 0.0
2018-Jun-15 12:31N 32°20' W 090°54'0 0.0
2018-Jun-15 12:01N 32°20' W 090°54'0 0.0
2018-Jun-15 11:31N 32°20' W 090°54'0 0.0
2018-Jun-15 11:01N 32°20' W 090°54'0 0.0
2018-Jun-15 10:31N 32°20' W 090°54'0 0.0
2018-Jun-15 10:00N 32°20' W 090°54'0 0.0
2018-Jun-15 09:30N 32°20' W 090°54'0 0.0
2018-Jun-15 09:01N 32°20' W 090°54'0 0.0
2018-Jun-15 08:30N 32°20' W 090°54'0 0.0
2018-Jun-15 08:01N 32°20' W 090°54'0 0.0
2018-Jun-15 07:31N 32°20' W 090°54'0 0.0
2018-Jun-15 07:01N 32°20' W 090°54'0 0.0
2018-Jun-15 06:30N 32°20' W 090°54'0 0.0
2018-Jun-15 06:01N 32°20' W 090°54'0 0.0
2018-Jun-15 05:31N 32°20' W 090°54'0 0.0
2018-Jun-15 05:01N 32°20' W 090°54'0 0.0
2018-Jun-15 04:31N 32°20' W 090°54'0 0.0
2018-Jun-15 04:00N 32°20' W 090°54'0 0.0
2018-Jun-15 03:31N 32°20' W 090°54'0 0.0
2018-Jun-15 03:01N 32°20' W 090°54'0 0.0
2018-Jun-15 02:31N 32°20' W 090°54'0 0.0
2018-Jun-15 02:01N 32°20' W 090°54'0 0.0
2018-Jun-15 01:31N 32°20' W 090°54'1 1.5
2018-Jun-15 01:01N 32°21' W 090°53'2 4.4
2018-Jun-15 00:30N 32°23' W 090°54'0 0.1
2018-Jun-15 00:01N 32°23' W 090°54'0 0.0
2018-Jun-14 23:31N 32°23' W 090°54'0 0.0
2018-Jun-14 23:01N 32°23' W 090°54'0 0.0
2018-Jun-14 22:31N 32°23' W 090°54'0 0.0
2018-Jun-14 22:01N 32°23' W 090°54'0 0.0
2018-Jun-14 21:29N 32°23' W 090°54'0 0.0
2018-Jun-14 21:01N 32°23' W 090°54'0 0.0
2018-Jun-14 20:31N 32°23' W 090°54'0 0.0
2018-Jun-14 20:01N 32°23' W 090°54'0 0.1
2018-Jun-14 19:31N 32°23' W 090°54'0 0.0
2018-Jun-14 19:01N 32°23' W 090°54'0 0.0
2018-Jun-14 18:31N 32°23' W 090°54'0 0.0
2018-Jun-14 18:01N 32°23' W 090°54'0 0.0
2018-Jun-14 17:30N 32°23' W 090°54'0 0.0
2018-Jun-14 17:01N 32°23' W 090°54'0 0.0
2018-Jun-14 16:31N 32°23' W 090°54'0 0.0
2018-Jun-14 16:01N 32°23' W 090°54'0 0.0
2018-Jun-14 15:31N 32°23' W 090°54'0 0.0
2018-Jun-14 15:01N 32°23' W 090°54'0 0.0
2018-Jun-14 14:31N 32°23' W 090°54'0 0.0
2018-Jun-14 14:00N 32°23' W 090°54'0 0.0
2018-Jun-14 13:30N 32°23' W 090°54'0 0.0
2018-Jun-14 13:01N 32°23' W 090°54'0 0.0
2018-Jun-14 12:31N 32°23' W 090°54'0 0.0
2018-Jun-14 12:01N 32°23' W 090°54'0 0.0
2018-Jun-14 11:31N 32°23' W 090°54'0 0.0
2018-Jun-14 11:01N 32°23' W 090°54'0 0.0
2018-Jun-14 10:31N 32°23' W 090°54'0 0.0
2018-Jun-14 10:01N 32°23' W 090°54'0 0.0
2018-Jun-14 09:31N 32°23' W 090°54'0 0.0
2018-Jun-14 09:01N 32°23' W 090°54'0 0.0
2018-Jun-14 08:31N 32°23' W 090°54'0 0.0
2018-Jun-14 08:01N 32°23' W 090°54'0 0.0
2018-Jun-14 07:31N 32°23' W 090°54'0 0.0
2018-Jun-14 07:01N 32°23' W 090°54'0 0.0
2018-Jun-14 06:31N 32°23' W 090°54'0 0.0
2018-Jun-14 06:01N 32°23' W 090°54'0 0.0
2018-Jun-14 05:30N 32°23' W 090°54'0 0.0
2018-Jun-14 05:00N 32°23' W 090°54'0 0.0
2018-Jun-14 04:31N 32°23' W 090°54'0 0.0
2018-Jun-14 04:01N 32°23' W 090°54'1 1.9
2018-Jun-14 03:31N 32°23' W 090°53'2 3.1
2018-Jun-14 03:00N 32°21' W 090°53'1 2.3
2018-Jun-14 02:30N 32°23' W 090°54'1 2.2
2018-Jun-14 02:01N 32°23' W 090°55'0 0.0
2018-Jun-14 01:31N 32°23' W 090°55'0 0.0
2018-Jun-14 01:01N 32°23' W 090°55'0 0.0
2018-Jun-14 00:31N 32°23' W 090°55'0 0.0
2018-Jun-14 00:01N 32°23' W 090°55'0 0.0
2018-Jun-13 23:31N 32°23' W 090°55'0 0.0
2018-Jun-13 23:01N 32°23' W 090°55'0 0.0
2018-Jun-13 22:30N 32°23' W 090°55'0 0.0
2018-Jun-13 22:01N 32°23' W 090°55'0 0.0
2018-Jun-13 21:30N 32°23' W 090°55'0 0.0
2018-Jun-13 21:01N 32°23' W 090°55'0 0.0
2018-Jun-13 20:30N 32°23' W 090°55'0 0.0
2018-Jun-13 20:01N 32°23' W 090°55'0 0.0
2018-Jun-13 19:31N 32°23' W 090°55'0 0.0
2018-Jun-13 19:01N 32°23' W 090°55'0 0.0
2018-Jun-13 18:31N 32°23' W 090°55'0 0.0
2018-Jun-13 18:01N 32°23' W 090°55'0 0.0
2018-Jun-13 17:30N 32°23' W 090°55'0 0.0
2018-Jun-13 17:01N 32°23' W 090°55'0 0.0
2018-Jun-13 16:31N 32°23' W 090°55'0 0.0
2018-Jun-13 16:01N 32°23' W 090°55'1 2.4
2018-Jun-13 15:30N 32°22' W 090°53'1 1.5
2018-Jun-13 14:59N 32°23' W 090°53'0 0.0
2018-Jun-13 14:30N 32°23' W 090°53'0 0.0
2018-Jun-13 14:00N 32°23' W 090°53'0 0.0
2018-Jun-13 13:30N 32°23' W 090°53'1 1.5
2018-Jun-13 13:00N 32°22' W 090°53'1 2.6
2018-Jun-13 12:30N 32°23' W 090°55'0 0.0
2018-Jun-13 12:00N 32°23' W 090°55'1 1.1
2018-Jun-13 11:30N 32°23' W 090°54'1 2.9
2018-Jun-13 11:00N 32°22' W 090°53'2 3.1
2018-Jun-13 10:30N 32°21' W 090°53'1 2.3
2018-Jun-13 10:00N 32°20' W 090°54'3 5.1
2018-Jun-13 09:30N 32°18' W 090°56'2 4.5
2018-Jun-13 09:00N 32°16' W 090°58'2 4.3
2018-Jun-13 08:30N 32°14' W 090°59'2 4.5
2018-Jun-13 08:00N 32°12' W 090°59'2 4.2
2018-Jun-13 07:30N 32°10' W 090°60'2 4.2
2018-Jun-13 07:00N 32°08' W 091°00'2 4.1
2018-Jun-13 06:30N 32°07' W 091°03'1 2.7
2018-Jun-13 06:00N 32°08' W 091°04'2 3.9
2018-Jun-13 05:30N 32°08' W 091°06'4 4.2
2018-Jun-13 04:35N 32°04' W 091°04'0 4.4
2018-Jun-13 04:30N 32°04' W 091°04'2 4.4
2018-Jun-13 04:00N 32°02' W 091°04'2 4.1
2018-Jun-13 03:25N 31°60' W 091°06'  
Track history (hours):
 
Tides and Currents Weather Stations Pressure Air Temp Water Temp Dewpoint Dewpoint Depression Visibility Wind Speed Wind Dir Waves Ship Positions

W.w. Crum

Owner: Magnolia Marine Transport Co, Vicksburg, MS. More information available from US FCC via Universal Licensing System and Coast Guard Vessel Documentation Center.

Last reported at 2018-Jun-23 02:51 UTC. Time now 2018-Jun-25 09:34 UTC.
Position N 32°40' W 091°06'.

Length 38 m; draft 2.7 m.

Type: Towing. MMSI: 366939330.

Date/timePositionNaut miles runAvg speedWind from/ knotsBaromVisibWave heightAir tempDewpointWater temp
2018-Jun-23 02:51N 32°40' W 091°06'2 5.4
2018-Jun-23 02:30N 32°40' W 091°08'3 5.7
2018-Jun-23 02:01N 32°37' W 091°09'3 5.6
2018-Jun-23 01:31N 32°35' W 091°07'2 4.9
2018-Jun-23 01:01N 32°32' W 091°06'3 5.7
2018-Jun-23 00:31N 32°29' W 091°07'3 5.5
2018-Jun-23 00:01N 32°27' W 091°05'3 5.6
2018-Jun-22 23:31N 32°26' W 091°02'3 5.0
2018-Jun-22 23:01N 32°25' W 090°60'2 4.1
2018-Jun-22 22:30N 32°23' W 091°00'2 3.4
2018-Jun-22 22:01N 32°21' W 090°59'2 5.0
2018-Jun-22 21:31N 32°21' W 090°56'1 2.1
2018-Jun-22 21:01N 32°21' W 090°55'0 0.0
2018-Jun-22 20:30N 32°21' W 090°55'1 2.6
2018-Jun-22 20:01N 32°20' W 090°54'2 3.9
2018-Jun-22 19:30N 32°22' W 090°53'1 1.2
2018-Jun-22 19:01N 32°22' W 090°53'0 0.6
2018-Jun-22 18:30N 32°23' W 090°53'1 1.6
2018-Jun-22 18:01N 32°23' W 090°53'0 0.8
2018-Jun-22 17:30N 32°23' W 090°53'0 0.0
2018-Jun-22 17:01N 32°23' W 090°53'0 0.0
2018-Jun-22 16:31N 32°23' W 090°53'0 0.0
2018-Jun-22 16:00N 32°23' W 090°53'1 1.5
2018-Jun-22 15:30N 32°22' W 090°53'1 1.3
2018-Jun-22 15:01N 32°22' W 090°53'0 0.0
2018-Jun-22 14:31N 32°22' W 090°53'1 1.3
2018-Jun-22 14:01N 32°22' W 090°53'1 1.4
2018-Jun-22 13:31N 32°23' W 090°53'0 0.0
2018-Jun-22 13:01N 32°23' W 090°53'0 0.0
2018-Jun-22 12:31N 32°23' W 090°53'0 0.0
2018-Jun-22 11:59N 32°23' W 090°53'0 0.0
2018-Jun-22 11:31N 32°23' W 090°53'0 0.0
2018-Jun-22 11:00N 32°23' W 090°53'1 1.6
2018-Jun-22 10:30N 32°22' W 090°53'1 1.3
2018-Jun-22 10:01N 32°23' W 090°53'0 0.0
2018-Jun-22 09:31N 32°23' W 090°53'0 0.0
2018-Jun-22 09:00N 32°23' W 090°53'0 0.6
2018-Jun-22 08:31N 32°23' W 090°54'1 1.9
2018-Jun-22 08:01N 32°23' W 090°55'0 0.2
2018-Jun-22 07:31N 32°23' W 090°55'0 0.2
2018-Jun-22 07:00N 32°23' W 090°55'0 0.1
2018-Jun-22 06:31N 32°23' W 090°55'0 0.3
2018-Jun-22 06:01N 32°23' W 090°55'0 0.0
2018-Jun-22 05:30N 32°23' W 090°55'0 0.0
2018-Jun-22 05:01N 32°23' W 090°55'0 0.0
2018-Jun-22 04:31N 32°23' W 090°55'0 0.0
2018-Jun-22 04:01N 32°23' W 090°55'0 0.0
2018-Jun-22 03:31N 32°23' W 090°55'0 0.0
2018-Jun-22 03:01N 32°23' W 090°55'0 0.0
2018-Jun-22 02:30N 32°23' W 090°55'0 0.0
2018-Jun-22 02:01N 32°23' W 090°55'0 0.0
2018-Jun-22 01:30N 32°23' W 090°55'0 0.0
2018-Jun-22 01:01N 32°23' W 090°55'0 0.0
2018-Jun-22 00:31N 32°23' W 090°55'0 0.0
2018-Jun-22 00:01N 32°23' W 090°55'0 0.0
2018-Jun-21 23:31N 32°23' W 090°55'0 0.0
2018-Jun-21 23:01N 32°23' W 090°55'0 0.0
2018-Jun-21 22:31N 32°23' W 090°55'0 0.0
2018-Jun-21 22:01N 32°23' W 090°55'0 0.0
2018-Jun-21 21:30N 32°23' W 090°55'0 0.0
2018-Jun-21 21:00N 32°23' W 090°55'0 0.0
2018-Jun-21 20:31N 32°23' W 090°55'0 0.0
2018-Jun-21 20:00N 32°23' W 090°55'0 0.0
2018-Jun-21 19:31N 32°23' W 090°55'0 0.0
2018-Jun-21 19:01N 32°23' W 090°55'0 0.0
2018-Jun-21 18:31N 32°23' W 090°55'0 0.0
2018-Jun-21 18:01N 32°23' W 090°55'0 0.0
2018-Jun-21 17:30N 32°23' W 090°55'0 0.0
2018-Jun-21 17:01N 32°23' W 090°55'0 0.0
2018-Jun-21 16:31N 32°23' W 090°55'0 0.0
2018-Jun-21 16:01N 32°23' W 090°55'0 0.0
2018-Jun-21 15:31N 32°23' W 090°55'0 0.0
2018-Jun-21 15:01N 32°23' W 090°55'0 0.0
2018-Jun-21 14:31N 32°23' W 090°55'0 0.0
2018-Jun-21 14:01N 32°23' W 090°55'0 0.0
2018-Jun-21 13:31N 32°23' W 090°55'0 0.0
2018-Jun-21 13:01N 32°23' W 090°55'0 0.0
2018-Jun-21 12:31N 32°23' W 090°55'0 0.0
2018-Jun-21 12:00N 32°23' W 090°55'0 0.9
2018-Jun-21 11:31N 32°23' W 090°54'2 3.3
2018-Jun-21 11:00N 32°21' W 090°53'2 3.1
2018-Jun-21 10:31N 32°20' W 090°54'3 6.9
2018-Jun-21 10:01N 32°21' W 090°58'3 6.1
2018-Jun-21 09:31N 32°24' W 090°59'4 7.4
2018-Jun-21 09:01N 32°26' W 091°03'4 8.2
2018-Jun-21 08:31N 32°29' W 091°07'4 7.8
2018-Jun-21 08:00N 32°32' W 091°06'4 7.9
2018-Jun-21 07:31N 32°36' W 091°08'9 4.3
2018-Jun-21 05:26N 32°45' W 091°09'  
2018-Jun-16 16:16N 32°38' W 091°09'1 5.2
2018-Jun-16 16:01N 32°37' W 091°09'2 4.6
2018-Jun-16 15:30N 32°35' W 091°07'2 4.1
2018-Jun-16 15:00N 32°33' W 091°06'3 4.6
2018-Jun-16 14:26N 32°31' W 091°07'2 4.9
2018-Jun-16 14:00N 32°29' W 091°06'2 4.8
2018-Jun-16 13:31N 32°27' W 091°04'2 4.8
2018-Jun-16 13:00N 32°26' W 091°02'2 4.3
2018-Jun-16 12:31N 32°25' W 090°60'2 4.2
2018-Jun-16 12:00N 32°23' W 091°00'2 4.0
2018-Jun-16 11:31N 32°21' W 090°59'2 4.9
2018-Jun-16 11:01N 32°21' W 090°56'2 3.8
2018-Jun-16 10:31N 32°20' W 090°54'0 0.9
2018-Jun-16 10:00N 32°20' W 090°54'0 0.0
2018-Jun-16 09:31N 32°20' W 090°54'0 0.0
2018-Jun-16 09:01N 32°20' W 090°54'0 0.0
2018-Jun-16 08:31N 32°20' W 090°54'0 0.5
2018-Jun-16 08:01N 32°20' W 090°54'0 0.2
2018-Jun-16 07:30N 32°20' W 090°54'0 0.0
2018-Jun-16 07:01N 32°20' W 090°54'0 0.0
2018-Jun-16 06:31N 32°20' W 090°54'0 0.0
2018-Jun-16 06:01N 32°20' W 090°54'0 0.0
2018-Jun-16 05:30N 32°20' W 090°54'0 0.0
2018-Jun-16 05:01N 32°20' W 090°54'0 0.0
2018-Jun-16 04:31N 32°20' W 090°54'0 0.0
2018-Jun-16 04:01N 32°20' W 090°54'0 0.0
2018-Jun-16 03:31N 32°20' W 090°54'0 0.0
2018-Jun-16 03:00N 32°20' W 090°54'0 0.0
2018-Jun-16 02:30N 32°20' W 090°54'0 0.0
2018-Jun-16 02:01N 32°20' W 090°54'0 0.0
2018-Jun-16 01:31N 32°20' W 090°54'0 0.0
2018-Jun-16 01:01N 32°20' W 090°54'0 0.0
2018-Jun-16 00:31N 32°20' W 090°54'0 0.0
2018-Jun-16 00:00N 32°20' W 090°54'0 0.0
2018-Jun-15 23:30N 32°20' W 090°54'0 0.0
2018-Jun-15 23:01N 32°20' W 090°54'0 0.0
2018-Jun-15 22:31N 32°20' W 090°54'0 0.0
2018-Jun-15 22:01N 32°20' W 090°54'0 0.0
2018-Jun-15 21:31N 32°20' W 090°54'0 0.0
2018-Jun-15 21:01N 32°20' W 090°54'0 0.0
2018-Jun-15 20:31N 32°20' W 090°54'0 0.0
2018-Jun-15 20:01N 32°20' W 090°54'0 0.0
2018-Jun-15 19:31N 32°20' W 090°54'0 0.0
2018-Jun-15 19:01N 32°20' W 090°54'0 0.0
2018-Jun-15 18:31N 32°20' W 090°54'0 0.0
2018-Jun-15 18:01N 32°20' W 090°54'0 0.0
2018-Jun-15 17:31N 32°20' W 090°54'0 0.0
2018-Jun-15 17:01N 32°20' W 090°54'0 0.0
2018-Jun-15 16:30N 32°20' W 090°54'0 0.0
2018-Jun-15 16:00N 32°20' W 090°54'1 2.6
2018-Jun-15 15:31N 32°21' W 090°53'1 2.6
2018-Jun-15 15:00N 32°20' W 090°54'0 0.0
2018-Jun-15 14:31N 32°20' W 090°54'0 0.0
2018-Jun-15 14:01N 32°20' W 090°54'0 0.0
2018-Jun-15 13:31N 32°20' W 090°54'0 0.0
2018-Jun-15 13:00N 32°20' W 090°54'0 0.0
2018-Jun-15 12:31N 32°20' W 090°54'0 0.0
2018-Jun-15 12:01N 32°20' W 090°54'0 0.0
2018-Jun-15 11:31N 32°20' W 090°54'0 0.0
2018-Jun-15 11:01N 32°20' W 090°54'0 0.0
2018-Jun-15 10:31N 32°20' W 090°54'0 0.0
2018-Jun-15 10:00N 32°20' W 090°54'0 0.0
2018-Jun-15 09:30N 32°20' W 090°54'0 0.0
2018-Jun-15 09:01N 32°20' W 090°54'0 0.0
2018-Jun-15 08:30N 32°20' W 090°54'0 0.0
2018-Jun-15 08:01N 32°20' W 090°54'0 0.0
2018-Jun-15 07:31N 32°20' W 090°54'0 0.0
2018-Jun-15 07:01N 32°20' W 090°54'0 0.0
2018-Jun-15 06:30N 32°20' W 090°54'0 0.0
2018-Jun-15 06:01N 32°20' W 090°54'0 0.0
2018-Jun-15 05:31N 32°20' W 090°54'0 0.0
2018-Jun-15 05:01N 32°20' W 090°54'0 0.0
2018-Jun-15 04:31N 32°20' W 090°54'0 0.0
2018-Jun-15 04:00N 32°20' W 090°54'0 0.0
2018-Jun-15 03:31N 32°20' W 090°54'0 0.0
2018-Jun-15 03:01N 32°20' W 090°54'0 0.0
2018-Jun-15 02:31N 32°20' W 090°54'0 0.0
2018-Jun-15 02:01N 32°20' W 090°54'0 0.0
2018-Jun-15 01:31N 32°20' W 090°54'1 1.5
2018-Jun-15 01:01N 32°21' W 090°53'2 4.4
2018-Jun-15 00:30N 32°23' W 090°54'0 0.1
2018-Jun-15 00:01N 32°23' W 090°54'0 0.0
2018-Jun-14 23:31N 32°23' W 090°54'0 0.0
2018-Jun-14 23:01N 32°23' W 090°54'0 0.0
2018-Jun-14 22:31N 32°23' W 090°54'0 0.0
2018-Jun-14 22:01N 32°23' W 090°54'0 0.0
2018-Jun-14 21:29N 32°23' W 090°54'0 0.0
2018-Jun-14 21:01N 32°23' W 090°54'0 0.0
2018-Jun-14 20:31N 32°23' W 090°54'0 0.0
2018-Jun-14 20:01N 32°23' W 090°54'0 0.1
2018-Jun-14 19:31N 32°23' W 090°54'0 0.0
2018-Jun-14 19:01N 32°23' W 090°54'0 0.0
2018-Jun-14 18:31N 32°23' W 090°54'0 0.0
2018-Jun-14 18:01N 32°23' W 090°54'0 0.0
2018-Jun-14 17:30N 32°23' W 090°54'0 0.0
2018-Jun-14 17:01N 32°23' W 090°54'0 0.0
2018-Jun-14 16:31N 32°23' W 090°54'0 0.0
2018-Jun-14 16:01N 32°23' W 090°54'0 0.0
2018-Jun-14 15:31N 32°23' W 090°54'0 0.0
2018-Jun-14 15:01N 32°23' W 090°54'0 0.0
2018-Jun-14 14:31N 32°23' W 090°54'0 0.0
2018-Jun-14 14:00N 32°23' W 090°54'0 0.0
2018-Jun-14 13:30N 32°23' W 090°54'0 0.0
2018-Jun-14 13:01N 32°23' W 090°54'0 0.0
2018-Jun-14 12:31N 32°23' W 090°54'0 0.0
2018-Jun-14 12:01N 32°23' W 090°54'0 0.0
2018-Jun-14 11:31N 32°23' W 090°54'0 0.0
2018-Jun-14 11:01N 32°23' W 090°54'0 0.0
2018-Jun-14 10:31N 32°23' W 090°54'0 0.0
2018-Jun-14 10:01N 32°23' W 090°54'0 0.0
2018-Jun-14 09:31N 32°23' W 090°54'0 0.0
2018-Jun-14 09:01N 32°23' W 090°54'0 0.0
2018-Jun-14 08:31N 32°23' W 090°54'0 0.0
2018-Jun-14 08:01N 32°23' W 090°54'0 0.0
2018-Jun-14 07:31N 32°23' W 090°54'0 0.0
2018-Jun-14 07:01N 32°23' W 090°54'0 0.0
2018-Jun-14 06:31N 32°23' W 090°54'0 0.0
2018-Jun-14 06:01N 32°23' W 090°54'0 0.0
2018-Jun-14 05:30N 32°23' W 090°54'0 0.0
2018-Jun-14 05:00N 32°23' W 090°54'0 0.0
2018-Jun-14 04:31N 32°23' W 090°54'0 0.0
2018-Jun-14 04:01N 32°23' W 090°54'1 1.9
2018-Jun-14 03:31N 32°23' W 090°53'2 3.1
2018-Jun-14 03:00N 32°21' W 090°53'1 2.3
2018-Jun-14 02:30N 32°23' W 090°54'1 2.2
2018-Jun-14 02:01N 32°23' W 090°55'0 0.0
2018-Jun-14 01:31N 32°23' W 090°55'0 0.0
2018-Jun-14 01:01N 32°23' W 090°55'0 0.0
2018-Jun-14 00:31N 32°23' W 090°55'0 0.0
2018-Jun-14 00:01N 32°23' W 090°55'0 0.0
2018-Jun-13 23:31N 32°23' W 090°55'0 0.0
2018-Jun-13 23:01N 32°23' W 090°55'0 0.0
2018-Jun-13 22:30N 32°23' W 090°55'0 0.0
2018-Jun-13 22:01N 32°23' W 090°55'0 0.0
2018-Jun-13 21:30N 32°23' W 090°55'0 0.0
2018-Jun-13 21:01N 32°23' W 090°55'0 0.0
2018-Jun-13 20:30N 32°23' W 090°55'0 0.0
2018-Jun-13 20:01N 32°23' W 090°55'0 0.0
2018-Jun-13 19:31N 32°23' W 090°55'0 0.0
2018-Jun-13 19:01N 32°23' W 090°55'0 0.0
2018-Jun-13 18:31N 32°23' W 090°55'0 0.0
2018-Jun-13 18:01N 32°23' W 090°55'0 0.0
2018-Jun-13 17:30N 32°23' W 090°55'0 0.0
2018-Jun-13 17:01N 32°23' W 090°55'0 0.0
2018-Jun-13 16:31N 32°23' W 090°55'0 0.0
2018-Jun-13 16:01N 32°23' W 090°55'1 2.4
2018-Jun-13 15:30N 32°22' W 090°53'1 1.5
2018-Jun-13 14:59N 32°23' W 090°53'0 0.0
2018-Jun-13 14:30N 32°23' W 090°53'0 0.0
2018-Jun-13 14:00N 32°23' W 090°53'0 0.0
2018-Jun-13 13:30N 32°23' W 090°53'1 1.5
2018-Jun-13 13:00N 32°22' W 090°53'1 2.6
2018-Jun-13 12:30N 32°23' W 090°55'0 0.0
2018-Jun-13 12:00N 32°23' W 090°55'1 1.1
2018-Jun-13 11:30N 32°23' W 090°54'1 2.9
2018-Jun-13 11:00N 32°22' W 090°53'2 3.1
2018-Jun-13 10:30N 32°21' W 090°53'1 2.3
2018-Jun-13 10:00N 32°20' W 090°54'3 5.1
2018-Jun-13 09:30N 32°18' W 090°56'2 4.5
2018-Jun-13 09:00N 32°16' W 090°58'2 4.3
2018-Jun-13 08:30N 32°14' W 090°59'2 4.5
2018-Jun-13 08:00N 32°12' W 090°59'2 4.2
2018-Jun-13 07:30N 32°10' W 090°60'2 4.2
2018-Jun-13 07:00N 32°08' W 091°00'2 4.1
2018-Jun-13 06:30N 32°07' W 091°03'1 2.7
2018-Jun-13 06:00N 32°08' W 091°04'2 3.9
2018-Jun-13 05:30N 32°08' W 091°06'4 4.2
2018-Jun-13 04:35N 32°04' W 091°04'0 4.4
2018-Jun-13 04:30N 32°04' W 091°04'2 4.4
2018-Jun-13 04:00N 32°02' W 091°04'2 4.1
2018-Jun-13 03:25N 31°60' W 091°06'  

Dump ship's entire track history